createdAt,value
2019-04-29T00:02:15.009Z,83.07
2019-04-29T00:04:44.343Z,82.65
2019-04-29T00:07:13.746Z,83.12
2019-04-29T00:09:43.075Z,83.35
2019-04-29T00:12:12.938Z,83.46
2019-04-29T00:14:43.985Z,83.34
2019-04-29T00:17:14.961Z,82.98
2019-04-29T00:19:57.753Z,83.21
2019-04-29T00:22:27.070Z,82.97
2019-04-29T00:24:56.641Z,83.32
2019-04-29T00:27:25.967Z,83.16
2019-04-29T00:29:56.681Z,83.64
2019-04-29T00:32:26.077Z,83.32
2019-04-29T00:34:55.416Z,83.67
2019-04-29T00:37:41.689Z,84.08
2019-04-29T00:40:31.217Z,84.04
2019-04-29T00:43:02.173Z,83.71
2019-04-29T00:45:31.525Z,83.83
2019-04-29T00:48:00.847Z,84.05
2019-04-29T00:50:30.188Z,84.50
2019-04-29T00:52:59.503Z,84.07
2019-04-29T00:55:32.929Z,84.44
2019-04-29T00:58:02.320Z,84.41
2019-04-29T01:00:35.935Z,83.80
2019-04-29T01:03:05.561Z,84.12
2019-04-29T01:05:35.262Z,83.98
2019-04-29T01:08:04.922Z,84.08
2019-04-29T01:10:34.327Z,83.95
2019-04-29T01:13:03.729Z,83.76
2019-04-29T01:15:33.138Z,83.78
2019-04-29T01:18:02.776Z,83.99
2019-04-29T01:20:32.294Z,84.09
2019-04-29T01:23:01.614Z,84.14
2019-04-29T01:25:30.947Z,83.91
2019-04-29T01:28:18.144Z,84.47
2019-04-29T01:30:50.540Z,84.30
2019-04-29T01:33:19.867Z,84.08
2019-04-29T01:35:50.861Z,84.54
2019-04-29T01:38:20.210Z,84.41
2019-04-29T01:41:02.991Z,83.92
2019-04-29T01:43:50.761Z,84.45
2019-04-29T01:46:20.110Z,84.71
2019-04-29T01:48:49.454Z,84.22
2019-04-29T01:51:18.781Z,84.32
2019-04-29T01:53:48.104Z,84.42
2019-04-29T01:56:17.435Z,84.18
2019-04-29T01:58:46.772Z,84.33
2019-04-29T02:01:16.176Z,84.36
2019-04-29T02:03:45.525Z,84.58
2019-04-29T02:06:14.861Z,84.69
2019-04-29T02:08:44.198Z,84.69
2019-04-29T02:11:13.525Z,84.95
2019-04-29T02:13:42.854Z,84.51
2019-04-29T02:16:12.178Z,84.77
2019-04-29T02:18:41.516Z,84.99
2019-04-29T02:21:11.314Z,84.87
2019-04-29T02:23:57.296Z,85.17
2019-04-29T02:26:26.624Z,84.66
2019-04-29T02:28:55.960Z,85.09
2019-04-29T02:31:42.373Z,84.60
2019-04-29T02:34:11.711Z,84.94
2019-04-29T02:36:41.995Z,84.99
2019-04-29T02:39:31.198Z,85.11
2019-04-29T02:42:18.277Z,84.56
2019-04-29T02:44:47.997Z,84.67
2019-04-29T02:47:17.310Z,84.50
2019-04-29T02:49:46.650Z,84.45
2019-04-29T02:52:15.974Z,84.49
2019-04-29T02:54:45.900Z,84.82
2019-04-29T02:57:31.874Z,84.50
2019-04-29T03:00:03.123Z,84.77
2019-04-29T03:02:35.983Z,85.04
2019-04-29T03:05:09.994Z,84.80
2019-04-29T03:07:41.055Z,85.00
2019-04-29T03:10:10.931Z,85.02
2019-04-29T03:12:40.655Z,85.00
2019-04-29T03:15:10.526Z,85.33
2019-04-29T03:17:39.859Z,85.11
2019-04-29T03:20:26.148Z,85.15
2019-04-29T03:23:09.413Z,85.33
2019-04-29T03:25:38.922Z,85.33
2019-04-29T03:28:08.268Z,85.12
2019-04-29T03:30:37.612Z,85.21
2019-04-29T03:33:07.018Z,85.46
2019-04-29T03:35:36.361Z,85.55
2019-04-29T03:38:05.690Z,85.66
2019-04-29T03:40:35.331Z,85.81
2019-04-29T03:43:04.745Z,85.93
2019-04-29T03:45:34.345Z,85.87
2019-04-29T03:48:03.812Z,85.63
2019-04-29T03:50:34.486Z,85.66
2019-04-29T03:53:03.843Z,85.50
2019-04-29T03:55:39.614Z,85.16
2019-04-29T03:58:04.299Z,85.41
2019-04-29T04:00:34.025Z,85.39
2019-04-29T04:03:10.919Z,85.62
2019-04-29T04:05:44.914Z,85.60
2019-04-29T04:08:15.905Z,85.46
2019-04-29T04:10:45.253Z,85.72
2019-04-29T04:13:14.598Z,85.97
2019-04-29T04:15:43.965Z,86.12
2019-04-29T04:18:24.028Z,86.00
2019-04-29T04:20:53.376Z,86.19
2019-04-29T04:23:22.709Z,86.46
2019-04-29T04:25:53.293Z,86.47
2019-04-29T04:28:22.634Z,86.48
2019-04-29T04:30:51.971Z,86.67
2019-04-29T04:33:21.310Z,86.82
2019-04-29T04:35:50.648Z,87.01
2019-04-29T04:38:19.982Z,86.95
2019-04-29T04:41:00.059Z,87.06
2019-04-29T04:43:29.393Z,87.51
2019-04-29T04:45:58.744Z,87.62
2019-04-29T04:48:28.088Z,87.70
2019-04-29T04:50:57.433Z,87.38
2019-04-29T04:53:26.765Z,86.85
2019-04-29T04:55:57.745Z,87.00
2019-04-29T04:58:27.081Z,87.02
2019-04-29T05:00:56.430Z,86.75
2019-04-29T05:03:25.765Z,86.34
2019-04-29T05:05:55.506Z,86.21
2019-04-29T05:08:24.839Z,86.53
2019-04-29T05:10:54.184Z,86.74
2019-04-29T05:13:28.221Z,86.72
2019-04-29T05:15:54.569Z,86.88
2019-04-29T05:18:23.899Z,87.09
2019-04-29T05:20:53.229Z,87.21
2019-04-29T05:23:22.633Z,87.43
2019-04-29T05:25:51.931Z,87.53
2019-04-29T05:28:21.268Z,87.60
2019-04-29T05:30:50.612Z,87.64
2019-04-29T05:33:19.947Z,87.66
2019-04-29T05:35:51.220Z,87.60
2019-04-29T05:38:28.585Z,87.58
2019-04-29T05:40:57.918Z,87.56
2019-04-29T05:43:32.125Z,87.87
2019-04-29T05:46:21.735Z,87.88
2019-04-29T05:48:51.101Z,87.83
2019-04-29T05:51:34.036Z,87.68
2019-04-29T05:54:09.227Z,87.52
2019-04-29T05:56:38.566Z,87.57
2019-04-29T05:59:08.447Z,87.53
2019-04-29T06:01:42.596Z,87.23
2019-04-29T06:04:11.670Z,86.69
2019-04-29T06:06:41.828Z,86.62
2019-04-29T06:09:11.485Z,86.69
2019-04-29T06:11:42.178Z,86.88
2019-04-29T06:14:11.518Z,87.12
2019-04-29T06:16:40.856Z,87.05
2019-04-29T06:19:10.268Z,86.38
2019-04-29T06:21:39.615Z,85.91
2019-04-29T06:24:08.978Z,85.23
2019-04-29T06:26:38.587Z,84.93
2019-04-29T06:29:07.927Z,83.66
2019-04-29T06:31:37.258Z,83.67
2019-04-29T06:34:06.694Z,83.55
2019-04-29T06:36:36.074Z,83.25
2019-04-29T06:39:06.826Z,83.00
2019-04-29T06:41:36.162Z,82.87
2019-04-29T06:44:10.202Z,82.77
2019-04-29T06:46:36.532Z,82.53
2019-04-29T06:49:10.626Z,81.31
2019-04-29T06:51:37.966Z,80.39
2019-04-29T06:54:07.289Z,80.42
2019-04-29T06:56:36.644Z,80.65
2019-04-29T06:59:07.559Z,81.02
2019-04-29T07:01:38.596Z,80.57
2019-04-29T07:04:09.179Z,81.18
2019-04-29T07:06:38.518Z,79.92
2019-04-29T07:09:08.178Z,80.65
2019-04-29T07:11:38.467Z,79.84
2019-04-29T07:14:08.003Z,79.56
2019-04-29T07:16:37.619Z,79.00
2019-04-29T07:19:07.225Z,79.33
2019-04-29T07:21:36.568Z,78.44
2019-04-29T07:24:05.906Z,77.23
2019-04-29T07:26:35.485Z,77.35
2019-04-29T07:29:05.138Z,76.34
2019-04-29T07:31:35.172Z,75.65
2019-04-29T07:34:04.579Z,75.69
2019-04-29T07:36:33.922Z,74.96
2019-04-29T07:39:05.137Z,74.57
2019-04-29T07:41:34.655Z,74.87
2019-04-29T07:44:04.070Z,74.90
2019-04-29T07:46:55.519Z,74.94
2019-04-29T07:49:12.704Z,73.34
2019-04-29T07:51:40.803Z,73.05
2019-04-29T07:54:11.200Z,71.40
2019-04-29T07:56:42.466Z,70.46
2019-04-29T07:59:12.550Z,69.86
2019-04-29T08:01:41.916Z,69.62
2019-04-29T08:04:11.254Z,68.94
2019-04-29T08:06:43.021Z,68.15
2019-04-29T08:09:12.195Z,66.67
2019-04-29T08:11:41.877Z,66.30
2019-04-29T08:14:12.456Z,66.39
2019-04-29T08:16:41.792Z,65.30
2019-04-29T08:19:11.152Z,63.52
2019-04-29T08:21:40.480Z,63.97
2019-04-29T08:24:11.654Z,64.36
2019-04-29T08:26:47.039Z,63.69
2019-04-29T08:29:11.907Z,63.72
2019-04-29T08:31:41.241Z,63.39
2019-04-29T08:34:10.590Z,60.67
2019-04-29T08:36:39.931Z,63.53
2019-04-29T08:39:09.351Z,63.28
2019-04-29T08:41:38.966Z,61.93
2019-04-29T08:44:18.795Z,62.80
2019-04-29T08:46:51.648Z,63.27
2019-04-29T08:49:20.817Z,65.56
2019-04-29T08:51:50.163Z,62.19
2019-04-29T08:54:20.165Z,61.57
2019-04-29T08:57:02.285Z,62.26
2019-04-29T08:59:24.589Z,62.51
2019-04-29T09:01:52.848Z,59.55
2019-04-29T09:04:22.164Z,57.86
2019-04-29T09:06:52.879Z,58.31
2019-04-29T09:09:29.141Z,59.17
2019-04-29T09:11:53.270Z,59.58
2019-04-29T09:14:22.608Z,56.64
2019-04-29T09:16:51.954Z,56.58
2019-04-29T09:19:21.295Z,58.85
2019-04-29T09:21:58.332Z,58.82
2019-04-29T09:24:28.979Z,56.22
2019-04-29T09:27:15.036Z,57.53
2019-04-29T09:29:46.390Z,57.90
2019-04-29T09:32:15.631Z,56.90
2019-04-29T09:34:44.985Z,56.96
2019-04-29T09:37:14.332Z,57.27
2019-04-29T09:39:45.326Z,56.10
2019-04-29T09:42:35.108Z,56.09
2019-04-29T09:45:07.646Z,56.52
2019-04-29T09:47:36.978Z,55.10
2019-04-29T09:50:07.972Z,54.96
2019-04-29T09:52:37.375Z,57.36
2019-04-29T09:55:06.957Z,56.01
2019-04-29T09:57:36.305Z,54.76
2019-04-29T10:00:10.743Z,53.93
2019-04-29T10:03:02.936Z,53.40
2019-04-29T10:05:34.347Z,52.39
2019-04-29T10:08:05.298Z,53.17
2019-04-29T10:10:37.215Z,55.78
2019-04-29T10:13:06.123Z,54.64
2019-04-29T10:15:45.895Z,55.21
2019-04-29T10:18:16.939Z,54.48
2019-04-29T10:20:53.659Z,53.37
2019-04-29T10:23:23.076Z,53.23
2019-04-29T10:25:52.490Z,52.11
2019-04-29T10:28:21.979Z,52.02
2019-04-29T10:30:51.319Z,52.24
2019-04-29T10:33:23.032Z,52.13
2019-04-29T10:35:52.770Z,52.26
2019-04-29T10:38:22.103Z,54.08
2019-04-29T10:41:00.682Z,53.76
2019-04-29T10:43:31.462Z,50.78
2019-04-29T10:46:18.640Z,50.28
2019-04-29T10:48:49.608Z,50.40
2019-04-29T10:51:23.333Z,50.85
2019-04-29T10:53:52.726Z,50.42
2019-04-29T10:56:22.620Z,50.38
2019-04-29T10:58:52.231Z,50.85
2019-04-29T11:01:40.982Z,51.41
2019-04-29T11:04:10.320Z,49.87
2019-04-29T11:06:39.746Z,49.46
2019-04-29T11:09:14.461Z,49.92
2019-04-29T11:11:45.800Z,50.07
2019-04-29T11:14:15.140Z,49.26
2019-04-29T11:16:46.878Z,49.36
2019-04-29T11:19:15.638Z,47.74
2019-04-29T11:21:45.044Z,46.41
2019-04-29T11:24:16.028Z,46.79
2019-04-29T11:26:49.983Z,47.73
2019-04-29T11:29:22.251Z,44.86
2019-04-29T11:31:54.020Z,45.03
2019-04-29T11:34:28.370Z,45.96
2019-04-29T11:36:57.773Z,44.92
2019-04-29T11:39:27.106Z,43.86
2019-04-29T11:42:00.060Z,42.22
2019-04-29T11:44:28.041Z,40.50
2019-04-29T11:46:57.533Z,38.47
2019-04-29T11:49:28.511Z,38.03
2019-04-29T11:52:09.120Z,35.21
2019-04-29T11:54:28.883Z,36.39
2019-04-29T11:56:58.771Z,34.21
2019-04-29T11:59:45.949Z,34.14
2019-04-29T12:02:16.928Z,33.77
2019-04-29T12:04:56.649Z,33.57
2019-04-29T12:07:32.120Z,34.30
2019-04-29T12:09:57.712Z,33.13
2019-04-29T12:12:27.129Z,33.63
2019-04-29T12:15:15.460Z,34.00
2019-04-29T12:17:49.419Z,34.76
2019-04-29T12:20:25.869Z,34.17
2019-04-29T12:22:55.210Z,35.06
2019-04-29T12:25:27.493Z,34.50
2019-04-29T12:28:01.586Z,33.11
2019-04-29T12:30:29.805Z,33.46
2019-04-29T12:33:02.837Z,32.56
2019-04-29T12:35:33.830Z,31.63
2019-04-29T12:38:23.273Z,31.99
2019-04-29T12:40:55.103Z,33.03
2019-04-29T12:43:36.161Z,33.56
2019-04-29T12:46:12.950Z,31.83
2019-04-29T12:48:42.248Z,32.42
2019-04-29T12:51:11.654Z,32.71
2019-04-29T12:53:40.989Z,31.82
2019-04-29T12:56:11.270Z,32.32
2019-04-29T12:58:40.945Z,32.51
2019-04-29T13:01:17.870Z,30.95
2019-04-29T13:03:54.863Z,30.23
2019-04-29T13:06:39.189Z,29.30
2019-04-29T13:09:17.635Z,29.67
2019-04-29T13:11:48.250Z,28.93
2019-04-29T13:14:10.365Z,29.00
2019-04-29T13:16:55.318Z,28.30
2019-04-29T13:19:29.796Z,29.13
2019-04-29T13:21:56.806Z,28.84
2019-04-29T13:24:26.783Z,29.17
2019-04-29T13:26:56.275Z,29.50
2019-04-29T13:29:27.810Z,28.71
2019-04-29T13:31:56.644Z,28.96
2019-04-29T13:34:31.036Z,29.81
2019-04-29T13:37:07.161Z,29.37
2019-04-29T13:39:39.211Z,29.05
2019-04-29T13:42:02.978Z,28.08
2019-04-29T13:44:32.338Z,28.07
2019-04-29T13:47:09.257Z,27.81
2019-04-29T13:49:40.252Z,26.78
2019-04-29T13:52:09.994Z,27.02
2019-04-29T13:54:42.351Z,27.74
2019-04-29T13:57:15.615Z,28.27
2019-04-29T13:59:59.706Z,26.48
2019-04-29T14:02:36.256Z,26.77
2019-04-29T14:05:06.040Z,26.43
2019-04-29T14:07:35.370Z,25.85
2019-04-29T14:10:10.112Z,26.48
2019-04-29T14:15:09.257Z,26.44
2019-04-29T14:17:38.754Z,28.16
2019-04-29T14:18:53.484Z,26.21
2019-04-29T14:20:10.672Z,28.97
2019-04-29T14:22:39.419Z,29.39
2019-04-29T14:25:08.886Z,28.96
2019-04-29T14:27:38.450Z,29.41
2019-04-29T14:30:12.457Z,29.92
2019-04-29T14:32:42.339Z,30.72
2019-04-29T14:35:29.614Z,31.49
2019-04-29T14:38:04.317Z,32.50
2019-04-29T14:40:30.584Z,31.97
2019-04-29T14:43:26.281Z,31.11
2019-04-29T14:45:50.377Z,32.61
2019-04-29T14:48:21.350Z,33.03
2019-04-29T14:50:54.134Z,32.72
2019-04-29T14:53:24.220Z,33.67
2019-04-29T14:55:52.829Z,34.12
2019-04-29T14:58:22.159Z,33.15
2019-04-29T15:00:53.228Z,34.18
2019-04-29T15:03:24.231Z,35.77
2019-04-29T15:05:53.616Z,34.97
2019-04-29T15:08:23.003Z,35.42
2019-04-29T15:10:53.696Z,36.04
2019-04-29T15:13:24.686Z,36.06
2019-04-29T15:16:04.726Z,36.29
2019-04-29T15:18:47.727Z,36.62
2019-04-29T15:21:12.708Z,37.42
2019-04-29T15:23:42.035Z,37.44
2019-04-29T15:26:11.377Z,37.11
2019-04-29T15:28:52.542Z,36.87
2019-04-29T15:31:23.619Z,37.97
2019-04-29T15:33:53.040Z,39.21
2019-04-29T15:36:22.624Z,38.37
2019-04-29T15:39:07.922Z,39.21
2019-04-29T15:41:29.637Z,39.87
2019-04-29T15:44:06.593Z,40.69
2019-04-29T15:46:25.595Z,40.01
2019-04-29T15:48:55.158Z,39.72
2019-04-29T15:51:24.495Z,39.64
2019-04-29T15:53:54.509Z,40.50
2019-04-29T15:56:28.940Z,40.53
2019-04-29T15:58:59.692Z,40.66
2019-04-29T16:01:28.423Z,41.35
2019-04-29T16:03:58.690Z,41.13
2019-04-29T16:06:40.194Z,41.50
2019-04-29T16:09:09.075Z,41.75
2019-04-29T16:11:46.977Z,41.96
2019-04-29T16:14:18.041Z,42.59
2019-04-29T16:16:47.373Z,42.40
2019-04-29T16:19:16.704Z,42.04
2019-04-29T16:21:46.282Z,42.07
2019-04-29T16:24:26.282Z,42.56
2019-04-29T16:26:53.307Z,43.22
2019-04-29T16:29:17.897Z,43.03
2019-04-29T16:31:47.236Z,42.97
2019-04-29T16:34:16.572Z,43.17
2019-04-29T16:36:49.684Z,43.53
2019-04-29T16:39:16.920Z,43.75
2019-04-29T16:41:50.955Z,44.15
2019-04-29T16:44:34.630Z,44.52
2019-04-29T16:46:52.598Z,44.89
2019-04-29T16:49:22.015Z,45.07
2019-04-29T16:51:53.438Z,46.98
2019-04-29T16:54:28.195Z,46.10
2019-04-29T16:56:53.761Z,46.30
2019-04-29T16:59:23.102Z,46.41
2019-04-29T17:01:52.777Z,46.54
2019-04-29T17:04:23.071Z,46.93
2019-04-29T17:07:11.177Z,47.41
2019-04-29T17:09:27.493Z,47.71
2019-04-29T17:11:58.432Z,47.40
2019-04-29T17:14:28.126Z,47.34
2019-04-29T17:16:57.854Z,48.42
2019-04-29T17:19:27.270Z,47.96
2019-04-29T17:22:23.669Z,48.29
2019-04-29T17:24:27.938Z,48.63
2019-04-29T17:27:05.010Z,48.73
2019-04-29T17:29:48.621Z,49.25
2019-04-29T17:32:15.745Z,50.04
2019-04-29T17:34:59.018Z,50.15
2019-04-29T17:37:18.526Z,50.33
2019-04-29T17:39:47.855Z,50.72
2019-04-29T17:42:18.150Z,50.57
2019-04-29T17:44:47.496Z,50.66
2019-04-29T17:47:34.567Z,50.51
2019-04-29T17:50:13.588Z,50.92
2019-04-29T17:52:43.248Z,50.79
2019-04-29T17:55:15.211Z,50.75
2019-04-29T17:57:58.180Z,51.67
2019-04-29T18:00:41.117Z,51.78
2019-04-29T18:03:18.320Z,51.91
2019-04-29T18:05:57.597Z,52.13
2019-04-29T18:08:30.556Z,52.39
2019-04-29T18:11:04.688Z,53.26
2019-04-29T18:13:32.938Z,53.82
2019-04-29T18:16:04.766Z,54.18
2019-04-29T18:18:46.606Z,54.14
2019-04-29T18:21:19.597Z,54.80
2019-04-29T18:24:02.235Z,55.01
2019-04-29T18:26:52.702Z,55.42
2019-04-29T18:29:21.777Z,55.52
2019-04-29T18:31:51.115Z,55.67
2019-04-29T18:34:20.450Z,56.21
2019-04-29T18:36:49.783Z,56.24
2019-04-29T18:39:24.974Z,56.43
2019-04-29T18:41:54.786Z,56.74
2019-04-29T18:44:25.398Z,57.24
2019-04-29T18:46:57.167Z,57.10
2019-04-29T18:49:26.140Z,57.51
2019-04-29T18:51:57.890Z,57.54
2019-04-29T18:54:27.470Z,57.71
2019-04-29T18:56:57.046Z,57.96
2019-04-29T18:59:33.432Z,58.12
2019-04-29T19:02:00.955Z,58.38
2019-04-29T19:04:48.506Z,59.03
2019-04-29T19:07:15.906Z,58.98
2019-04-29T19:09:47.214Z,59.54
2019-04-29T19:12:17.508Z,60.57
2019-04-29T19:14:47.838Z,61.03
2019-04-29T19:17:17.258Z,61.54
2019-04-29T19:19:46.603Z,61.40
2019-04-29T19:22:15.938Z,61.95
2019-04-29T19:24:47.986Z,62.17
2019-04-29T19:27:16.348Z,62.53
2019-04-29T19:29:45.736Z,62.79
2019-04-29T19:32:18.874Z,63.16
2019-04-29T19:34:50.163Z,63.19
2019-04-29T19:37:17.147Z,63.13
2019-04-29T19:39:46.474Z,63.62
2019-04-29T19:42:28.656Z,63.76
2019-04-29T19:44:47.089Z,64.09
2019-04-29T19:47:16.750Z,64.31
2019-04-29T19:49:46.064Z,64.40
2019-04-29T19:52:26.495Z,64.69
2019-04-29T19:54:47.409Z,65.07
2019-04-29T19:57:17.832Z,65.38
2019-04-29T19:59:51.444Z,65.10
2019-04-29T20:02:19.375Z,65.53
2019-04-29T20:04:56.001Z,65.45
2019-04-29T20:07:26.751Z,65.47
2019-04-29T20:10:03.904Z,65.65
2019-04-29T20:12:26.784Z,65.86
2019-04-29T20:14:59.771Z,66.07
2019-04-29T20:17:36.870Z,65.83
2019-04-29T20:20:09.507Z,65.96
2019-04-29T20:22:43.391Z,65.88
2019-04-29T20:25:10.097Z,66.48
2019-04-29T20:27:39.670Z,66.62
2019-04-29T20:30:16.524Z,66.59
2019-04-29T20:32:40.443Z,66.51
2019-04-29T20:35:10.214Z,66.70
2019-04-29T20:37:39.821Z,66.51
2019-04-29T20:40:09.701Z,66.61
2019-04-29T20:42:40.447Z,66.80
2019-04-29T20:45:10.495Z,66.68
2019-04-29T20:47:42.039Z,66.68
2019-04-29T20:50:13.713Z,66.05
2019-04-29T20:52:52.129Z,65.75
2019-04-29T20:55:21.305Z,65.70
2019-04-29T20:57:52.506Z,65.54
2019-04-29T21:00:25.093Z,65.50
2019-04-29T21:02:53.455Z,65.50
2019-04-29T21:05:24.674Z,65.53
2019-04-29T21:08:02.966Z,64.91
2019-04-29T21:10:26.445Z,65.03
2019-04-29T21:13:16.238Z,64.73
2019-04-29T21:16:01.622Z,64.57
2019-04-29T21:18:30.954Z,64.64
2019-04-29T21:21:04.493Z,64.78
2019-04-29T21:23:35.297Z,65.09
2019-04-29T21:26:05.344Z,65.11
2019-04-29T21:28:38.147Z,65.19
2019-04-29T21:31:05.258Z,65.27
2019-04-29T21:33:35.532Z,65.52
2019-04-29T21:36:09.613Z,65.46
2019-04-29T21:39:01.919Z,65.73
2019-04-29T21:41:32.443Z,65.88
2019-04-29T21:44:03.452Z,65.98
2019-04-29T21:46:33.103Z,66.18
2019-04-29T21:49:06.834Z,66.06
2019-04-29T21:51:35.486Z,66.28
2019-04-29T21:54:09.686Z,66.74
2019-04-29T21:56:39.700Z,66.68
2019-04-29T21:59:12.004Z,66.89
2019-04-29T22:01:39.378Z,67.41
2019-04-29T22:04:08.892Z,67.51
2019-04-29T22:06:38.240Z,67.29
2019-04-29T22:09:08.452Z,67.67
2019-04-29T22:11:43.583Z,67.67
2019-04-29T22:14:14.190Z,68.22
2019-04-29T22:16:41.202Z,67.94
2019-04-29T22:19:10.546Z,68.31
2019-04-29T22:21:39.895Z,68.21
2019-04-29T22:24:09.229Z,68.19
2019-04-29T22:26:38.905Z,68.56
2019-04-29T22:29:08.259Z,68.48
2019-04-29T22:31:38.373Z,68.61
2019-04-29T22:34:10.031Z,68.71
2019-04-29T22:36:38.883Z,68.77
2019-04-29T22:39:08.446Z,69.18
2019-04-29T22:41:55.508Z,69.36
2019-04-29T22:44:26.128Z,69.30
2019-04-29T22:46:55.704Z,69.74
2019-04-29T22:49:29.199Z,69.60
2019-04-29T22:51:57.223Z,69.63
2019-04-29T22:54:26.718Z,69.66
2019-04-29T22:56:56.788Z,70.00
2019-04-29T22:59:27.778Z,69.95
2019-04-29T23:01:57.119Z,70.04
2019-04-29T23:04:26.491Z,70.11
2019-04-29T23:06:55.819Z,70.43
2019-04-29T23:09:25.154Z,70.86
2019-04-29T23:11:55.674Z,71.27
2019-04-29T23:14:25.319Z,71.23
2019-04-29T23:16:55.595Z,71.08
2019-04-29T23:19:25.946Z,71.17
2019-04-29T23:21:59.804Z,71.66
2019-04-29T23:24:46.645Z,71.48
2019-04-29T23:27:19.510Z,71.59
2019-04-29T23:29:47.145Z,71.37
2019-04-29T23:32:16.479Z,71.45
2019-04-29T23:34:45.820Z,71.48
2019-04-29T23:37:15.575Z,71.54
2019-04-29T23:39:45.724Z,71.79
2019-04-29T23:42:16.297Z,71.85
2019-04-29T23:44:45.763Z,71.85
2019-04-29T23:47:15.821Z,72.23
2019-04-29T23:49:46.867Z,72.33
2019-04-29T23:52:17.888Z,72.57
2019-04-29T23:54:48.630Z,72.31
2019-04-29T23:57:23.612Z,72.29
